Time,TemperatureF,DewpointF,PressureIn,WindDirection,WindDirectionDegrees,WindSpeedMPH,WindSpeedGustMPH,Humidity,HourlyPrecipIn,Conditions,Clouds,dailyrainin,SoftwareType,DateUTC
2013-05-18 10:00:00,63.4,62.5,29.99,SSE,148,0.0,0.0,97,0.00,,---,0.36,VWS V12.07,2013-05-18 14:00:00,
2013-05-18 10:30:00,64.8,63.0,29.98,South,190,0.0,4.0,94,0.00,,---,0.36,VWS V12.07,2013-05-18 14:30:00,
2013-05-18 11:00:00,65.2,63.1,29.98,SSE,167,0.0,0.0,93,0.00,,---,0.36,VWS V12.07,2013-05-18 15:00:00,
2013-05-18 11:30:00,65.5,63.1,29.98,ESE,123,0.0,2.0,92,0.00,,---,0.36,VWS V12.07,2013-05-18 15:30:00,
2013-05-18 12:00:00,66.0,63.3,29.98,SSE,167,1.0,1.0,91,0.00,,---,0.36,VWS V12.07,2013-05-18 16:00:00,
2013-05-18 12:30:00,66.8,63.1,29.98,SE,132,3.0,3.0,88,0.00,,---,0.36,VWS V12.07,2013-05-18 16:30:00,
2013-05-18 13:00:00,67.1,62.5,29.98,South,171,0.0,2.0,85,0.00,,---,0.36,VWS V12.07,2013-05-18 17:00:00,
2013-05-18 13:30:00,67.3,63.6,29.98,SSE,168,0.0,0.0,88,0.00,,---,0.36,VWS V12.07,2013-05-18 17:30:00,
2013-05-18 14:00:00,68.4,63.4,29.97,South,175,4.0,4.0,84,0.00,,---,0.36,VWS V12.07,2013-05-18 18:00:00,
2013-05-18 14:30:00,68.6,63.6,29.96,South,182,0.0,2.0,84,0.00,,---,0.36,VWS V12.07,2013-05-18 18:30:00,
2013-05-18 15:00:00,67.8,64.4,29.96,SSW,201,0.0,1.0,89,0.01,,---,0.38,VWS V12.07,2013-05-18 19:00:00,
2013-05-18 15:30:00,67.6,63.6,29.95,SSE,150,0.0,1.0,87,0.01,,---,0.38,VWS V12.07,2013-05-18 19:30:00,
2013-05-18 16:00:00,68.1,63.8,29.95,SSE,165,0.0,2.0,86,0.00,,---,0.38,VWS V12.07,2013-05-18 20:00:00,
2013-05-18 16:30:00,68.8,63.4,29.95,SSE,151,0.0,2.0,83,0.00,,---,0.38,VWS V12.07,2013-05-18 20:30:00,
2013-05-18 17:00:00,70.3,63.5,29.93,South,171,0.0,3.0,79,0.00,,---,0.38,VWS V12.07,2013-05-18 21:00:00,
2013-05-18 17:30:00,69.3,64.9,29.93,SE,143,0.0,2.0,86,0.00,,---,0.38,VWS V12.07,2013-05-18 21:30:00,
2013-05-18 18:00:00,68.6,65.6,29.93,South,171,2.0,2.0,90,0.00,,---,0.38,VWS V12.07,2013-05-18 22:00:00,
2013-05-18 18:30:00,68.3,64.6,29.93,South,171,0.0,0.0,88,0.00,,---,0.38,VWS V12.07,2013-05-18 22:30:00,
2013-05-18 19:00:00,67.9,65.2,29.93,South,171,0.0,0.0,91,0.00,,---,0.38,VWS V12.07,2013-05-18 23:00:00,
2013-05-18 19:30:00,67.3,65.2,29.94,SE,140,0.0,0.0,93,0.00,,---,0.38,VWS V12.07,2013-05-18 23:30:00,
2013-05-18 20:00:00,66.6,64.8,29.95,SE,140,0.0,0.0,94,0.00,,---,0.38,VWS V12.07,2013-05-19 00:00:00,
2013-05-18 20:30:00,66.0,64.5,29.95,SE,144,0.0,0.0,95,0.00,,---,0.38,VWS V12.07,2013-05-19 00:30:00,
2013-05-18 21:00:00,65.6,64.4,29.95,SE,144,0.0,0.0,96,0.00,,---,0.38,VWS V12.07,2013-05-19 01:00:00,
2013-05-18 21:30:00,65.2,64.3,29.96,SE,144,0.0,0.0,97,0.00,,---,0.38,VWS V12.07,2013-05-19 01:30:00,